sensor_id;sensor_type;location;lat;lon;timestamp;temperature;humidity
36594;DHT22;22603;47.900;8.146;2022-07-06T00:02:06;11.30;99.90
36594;DHT22;22603;47.900;8.146;2022-07-06T00:04:53;11.30;99.90
36594;DHT22;22603;47.900;8.146;2022-07-06T00:07:40;11.30;99.90
36594;DHT22;22603;47.900;8.146;2022-07-06T00:10:29;11.30;99.90
36594;DHT22;22603;47.900;8.146;2022-07-06T00:13:16;11.20;99.90
36594;DHT22;22603;47.900;8.146;2022-07-06T00:16:03;11.20;99.90
36594;DHT22;22603;47.900;8.146;2022-07-06T00:18:51;11.10;99.90
36594;DHT22;22603;47.900;8.146;2022-07-06T00:21:38;11.10;99.90
36594;DHT22;22603;47.900;8.146;2022-07-06T00:24:25;11.10;99.90
36594;DHT22;22603;47.900;8.146;2022-07-06T00:27:14;11.10;99.90
36594;DHT22;22603;47.900;8.146;2022-07-06T00:30:00;11.00;99.90
36594;DHT22;22603;47.900;8.146;2022-07-06T00:32:48;10.90;99.90
36594;DHT22;22603;47.900;8.146;2022-07-06T00:35:35;10.90;99.90
36594;DHT22;22603;47.900;8.146;2022-07-06T00:38:22;10.90;99.90
36594;DHT22;22603;47.900;8.146;2022-07-06T00:41:09;10.90;99.90
36594;DHT22;22603;47.900;8.146;2022-07-06T00:43:58;10.90;99.90
36594;DHT22;22603;47.900;8.146;2022-07-06T00:46:44;10.90;99.90
36594;DHT22;22603;47.900;8.146;2022-07-06T00:49:32;10.90;99.90
36594;DHT22;22603;47.900;8.146;2022-07-06T00:52:37;10.80;99.90
36594;DHT22;22603;47.900;8.146;2022-07-06T00:55:26;10.80;99.90
36594;DHT22;22603;47.900;8.146;2022-07-06T00:58:13;10.70;99.90
36594;DHT22;22603;47.900;8.146;2022-07-06T01:01:02;10.70;99.90
36594;DHT22;22603;47.900;8.146;2022-07-06T01:03:49;10.70;99.90
36594;DHT22;22603;47.900;8.146;2022-07-06T01:06:36;10.60;99.90
36594;DHT22;22603;47.900;8.146;2022-07-06T01:09:23;10.50;99.90
36594;DHT22;22603;47.900;8.146;2022-07-06T01:12:11;10.50;99.90
36594;DHT22;22603;47.900;8.146;2022-07-06T01:14:58;10.50;99.90
36594;DHT22;22603;47.900;8.146;2022-07-06T01:17:47;10.40;99.90
36594;DHT22;22603;47.900;8.146;2022-07-06T01:20:35;10.40;99.90
36594;DHT22;22603;47.900;8.146;2022-07-06T01:23:22;10.30;99.90
36594;DHT22;22603;47.900;8.146;2022-07-06T01:26:14;10.30;99.90
36594;DHT22;22603;47.900;8.146;2022-07-06T01:29:02;10.20;99.90
36594;DHT22;22603;47.900;8.146;2022-07-06T01:31:50;10.20;99.90
36594;DHT22;22603;47.900;8.146;2022-07-06T01:34:37;10.20;99.90
36594;DHT22;22603;47.900;8.146;2022-07-06T01:37:26;10.30;99.90
36594;DHT22;22603;47.900;8.146;2022-07-06T01:40:13;10.20;99.90
36594;DHT22;22603;47.900;8.146;2022-07-06T01:43:00;10.20;99.90
36594;DHT22;22603;47.900;8.146;2022-07-06T01:45:47;10.10;99.90
36594;DHT22;22603;47.900;8.146;2022-07-06T01:48:34;10.10;99.90
36594;DHT22;22603;47.900;8.146;2022-07-06T01:51:22;10.10;99.90
36594;DHT22;22603;47.900;8.146;2022-07-06T01:54:10;10.10;99.90
36594;DHT22;22603;47.900;8.146;2022-07-06T01:56:57;10.00;99.90
36594;DHT22;22603;47.900;8.146;2022-07-06T01:59:45;10.00;99.90
36594;DHT22;22603;47.900;8.146;2022-07-06T02:02:32;10.00;99.90
36594;DHT22;22603;47.900;8.146;2022-07-06T02:05:19;10.00;99.90
36594;DHT22;22603;47.900;8.146;2022-07-06T02:08:06;9.90;99.90
36594;DHT22;22603;47.900;8.146;2022-07-06T02:10:55;9.90;99.90
36594;DHT22;22603;47.900;8.146;2022-07-06T02:13:42;9.90;99.90
36594;DHT22;22603;47.900;8.146;2022-07-06T02:16:29;9.80;99.90
36594;DHT22;22603;47.900;8.146;2022-07-06T02:19:16;9.80;99.90
36594;DHT22;22603;47.900;8.146;2022-07-06T02:22:03;9.70;99.90
36594;DHT22;22603;47.900;8.146;2022-07-06T02:24:51;9.70;99.90
36594;DHT22;22603;47.900;8.146;2022-07-06T02:27:39;9.60;99.90
36594;DHT22;22603;47.900;8.146;2022-07-06T02:30:26;9.60;99.90
36594;DHT22;22603;47.900;8.146;2022-07-06T02:33:13;9.60;99.90
36594;DHT22;22603;47.900;8.146;2022-07-06T02:36:00;9.60;99.90
36594;DHT22;22603;47.900;8.146;2022-07-06T02:38:47;9.50;99.90
36594;DHT22;22603;47.900;8.146;2022-07-06T02:41:34;9.40;99.90
36594;DHT22;22603;47.900;8.146;2022-07-06T02:44:23;9.50;99.90
36594;DHT22;22603;47.900;8.146;2022-07-06T02:47:10;9.40;99.90
36594;DHT22;22603;47.900;8.146;2022-07-06T02:49:58;9.40;99.90
36594;DHT22;22603;47.900;8.146;2022-07-06T02:52:47;9.40;99.90
36594;DHT22;22603;47.900;8.146;2022-07-06T02:55:34;9.30;99.90
36594;DHT22;22603;47.900;8.146;2022-07-06T02:58:21;9.40;99.90
36594;DHT22;22603;47.900;8.146;2022-07-06T03:01:11;9.30;99.90
36594;DHT22;22603;47.900;8.146;2022-07-06T03:03:58;9.30;99.90
36594;DHT22;22603;47.900;8.146;2022-07-06T03:06:46;9.30;99.90
36594;DHT22;22603;47.900;8.146;2022-07-06T03:09:33;9.20;99.90
36594;DHT22;22603;47.900;8.146;2022-07-06T03:12:20;9.20;99.90
36594;DHT22;22603;47.900;8.146;2022-07-06T03:15:08;9.20;99.90
36594;DHT22;22603;47.900;8.146;2022-07-06T03:17:57;9.20;99.90
36594;DHT22;22603;47.900;8.146;2022-07-06T03:20:45;9.20;99.90
36594;DHT22;22603;47.900;8.146;2022-07-06T03:23:32;9.10;99.90
36594;DHT22;22603;47.900;8.146;2022-07-06T03:26:19;9.10;99.90
36594;DHT22;22603;47.900;8.146;2022-07-06T03:29:06;9.00;99.90
36594;DHT22;22603;47.900;8.146;2022-07-06T03:31:54;9.10;99.90
36594;DHT22;22603;47.900;8.146;2022-07-06T03:34:42;9.10;99.90
36594;DHT22;22603;47.900;8.146;2022-07-06T03:37:29;9.10;99.90
36594;DHT22;22603;47.900;8.146;2022-07-06T03:40:16;9.10;99.90
36594;DHT22;22603;47.900;8.146;2022-07-06T03:43:03;9.00;99.90
36594;DHT22;22603;47.900;8.146;2022-07-06T03:45:50;9.00;99.90
36594;DHT22;22603;47.900;8.146;2022-07-06T03:48:37;9.00;99.90
36594;DHT22;22603;47.900;8.146;2022-07-06T03:51:26;9.00;99.90
36594;DHT22;22603;47.900;8.146;2022-07-06T03:54:13;9.00;99.90
36594;DHT22;22603;47.900;8.146;2022-07-06T03:57:01;9.00;99.90
36594;DHT22;22603;47.900;8.146;2022-07-06T03:59:48;9.10;99.90
36594;DHT22;22603;47.900;8.146;2022-07-06T04:02:35;9.10;99.90
36594;DHT22;22603;47.900;8.146;2022-07-06T04:05:22;9.00;99.90
36594;DHT22;22603;47.900;8.146;2022-07-06T04:08:11;9.00;99.90
36594;DHT22;22603;47.900;8.146;2022-07-06T04:10:58;9.00;99.90
36594;DHT22;22603;47.900;8.146;2022-07-06T04:13:46;9.00;99.90
36594;DHT22;22603;47.900;8.146;2022-07-06T04:16:34;9.00;99.90
36594;DHT22;22603;47.900;8.146;2022-07-06T04:19:21;9.10;99.90
36594;DHT22;22603;47.900;8.146;2022-07-06T04:22:08;9.10;99.90
36594;DHT22;22603;47.900;8.146;2022-07-06T04:24:57;9.20;99.90
36594;DHT22;22603;47.900;8.146;2022-07-06T04:27:44;9.20;99.90
36594;DHT22;22603;47.900;8.146;2022-07-06T04:30:31;9.20;99.90
36594;DHT22;22603;47.900;8.146;2022-07-06T04:33:18;9.30;99.90
36594;DHT22;22603;47.900;8.146;2022-07-06T04:36:06;9.30;99.90
36594;DHT22;22603;47.900;8.146;2022-07-06T04:38:53;9.40;99.90
36594;DHT22;22603;47.900;8.146;2022-07-06T04:41:41;9.50;99.90
36594;DHT22;22603;47.900;8.146;2022-07-06T04:44:28;9.60;99.90
36594;DHT22;22603;47.900;8.146;2022-07-06T04:47:15;9.70;99.90
36594;DHT22;22603;47.900;8.146;2022-07-06T04:50:04;9.70;99.90
36594;DHT22;22603;47.900;8.146;2022-07-06T04:52:51;9.90;99.90
36594;DHT22;22603;47.900;8.146;2022-07-06T04:55:38;9.90;99.90
36594;DHT22;22603;47.900;8.146;2022-07-06T04:58:27;9.90;99.90
36594;DHT22;22603;47.900;8.146;2022-07-06T05:01:14;10.00;99.90
36594;DHT22;22603;47.900;8.146;2022-07-06T05:04:01;10.20;99.90
36594;DHT22;22603;47.900;8.146;2022-07-06T05:06:48;10.30;99.90
36594;DHT22;22603;47.900;8.146;2022-07-06T05:09:35;10.50;99.90
36594;DHT22;22603;47.900;8.146;2022-07-06T05:12:22;10.60;99.90
36594;DHT22;22603;47.900;8.146;2022-07-06T05:15:11;10.70;99.90
36594;DHT22;22603;47.900;8.146;2022-07-06T05:17:59;10.80;99.90
36594;DHT22;22603;47.900;8.146;2022-07-06T05:20:46;11.00;99.90
36594;DHT22;22603;47.900;8.146;2022-07-06T05:23:33;11.20;99.90
36594;DHT22;22603;47.900;8.146;2022-07-06T05:26:19;11.40;99.90
36594;DHT22;22603;47.900;8.146;2022-07-06T05:29:07;11.60;99.90
36594;DHT22;22603;47.900;8.146;2022-07-06T05:31:55;11.70;99.90
36594;DHT22;22603;47.900;8.146;2022-07-06T05:34:42;11.90;99.90
36594;DHT22;22603;47.900;8.146;2022-07-06T05:37:29;12.00;99.90
36594;DHT22;22603;47.900;8.146;2022-07-06T05:40:16;12.10;99.90
36594;DHT22;22603;47.900;8.146;2022-07-06T05:43:04;12.30;99.90
36594;DHT22;22603;47.900;8.146;2022-07-06T05:45:51;12.40;99.90
36594;DHT22;22603;47.900;8.146;2022-07-06T05:48:39;12.50;99.90
36594;DHT22;22603;47.900;8.146;2022-07-06T05:51:43;12.50;99.90
36594;DHT22;22603;47.900;8.146;2022-07-06T05:54:30;12.50;99.90
36594;DHT22;22603;47.900;8.146;2022-07-06T05:57:17;12.60;99.90
36594;DHT22;22603;47.900;8.146;2022-07-06T06:00:06;12.70;99.90
36594;DHT22;22603;47.900;8.146;2022-07-06T06:02:53;12.80;99.90
36594;DHT22;22603;47.900;8.146;2022-07-06T06:05:42;12.80;99.90
36594;DHT22;22603;47.900;8.146;2022-07-06T06:08:29;12.90;99.90
36594;DHT22;22603;47.900;8.146;2022-07-06T06:11:16;13.00;99.90
36594;DHT22;22603;47.900;8.146;2022-07-06T06:14:04;13.00;99.90
36594;DHT22;22603;47.900;8.146;2022-07-06T06:16:51;13.20;99.90
36594;DHT22;22603;47.900;8.146;2022-07-06T06:19:38;13.30;99.90
36594;DHT22;22603;47.900;8.146;2022-07-06T06:22:26;13.70;99.90
36594;DHT22;22603;47.900;8.146;2022-07-06T06:25:13;14.50;99.90
36594;DHT22;22603;47.900;8.146;2022-07-06T06:28:02;15.30;99.90
36594;DHT22;22603;47.900;8.146;2022-07-06T06:30:49;15.70;99.90
36594;DHT22;22603;47.900;8.146;2022-07-06T06:33:39;16.30;99.90
36594;DHT22;22603;47.900;8.146;2022-07-06T06:36:28;16.60;99.90
36594;DHT22;22603;47.900;8.146;2022-07-06T06:39:17;17.10;99.90
36594;DHT22;22603;47.900;8.146;2022-07-06T06:42:04;17.80;99.90
36594;DHT22;22603;47.900;8.146;2022-07-06T06:44:51;18.10;99.90
36594;DHT22;22603;47.900;8.146;2022-07-06T06:47:39;18.40;99.90
36594;DHT22;22603;47.900;8.146;2022-07-06T06:50:26;18.60;99.90
36594;DHT22;22603;47.900;8.146;2022-07-06T06:53:13;19.20;99.90
36594;DHT22;22603;47.900;8.146;2022-07-06T06:56:01;19.90;99.90
36594;DHT22;22603;47.900;8.146;2022-07-06T06:58:48;19.90;99.90
36594;DHT22;22603;47.900;8.146;2022-07-06T07:01:55;20.40;99.90
36594;DHT22;22603;47.900;8.146;2022-07-06T07:04:42;20.70;99.90
36594;DHT22;22603;47.900;8.146;2022-07-06T07:07:30;20.30;99.90
36594;DHT22;22603;47.900;8.146;2022-07-06T07:10:17;20.60;99.90
36594;DHT22;22603;47.900;8.146;2022-07-06T07:13:05;20.80;99.90
36594;DHT22;22603;47.900;8.146;2022-07-06T07:15:52;21.00;99.90
36594;DHT22;22603;47.900;8.146;2022-07-06T07:18:39;21.60;99.90
36594;DHT22;22603;47.900;8.146;2022-07-06T07:21:27;21.80;99.90
36594;DHT22;22603;47.900;8.146;2022-07-06T07:24:14;22.10;99.90
36594;DHT22;22603;47.900;8.146;2022-07-06T07:27:01;22.40;99.90
36594;DHT22;22603;47.900;8.146;2022-07-06T07:29:49;22.80;99.90
36594;DHT22;22603;47.900;8.146;2022-07-06T07:32:36;23.80;99.90
36594;DHT22;22603;47.900;8.146;2022-07-06T07:35:26;24.60;99.90
36594;DHT22;22603;47.900;8.146;2022-07-06T07:38:12;25.50;99.90
36594;DHT22;22603;47.900;8.146;2022-07-06T07:41:00;26.20;99.90
36594;DHT22;22603;47.900;8.146;2022-07-06T07:43:47;26.90;99.90
36594;DHT22;22603;47.900;8.146;2022-07-06T07:46:35;27.10;99.90
36594;DHT22;22603;47.900;8.146;2022-07-06T07:49:22;26.90;99.90
36594;DHT22;22603;47.900;8.146;2022-07-06T07:52:10;27.30;99.90
36594;DHT22;22603;47.900;8.146;2022-07-06T07:54:57;27.00;99.90
36594;DHT22;22603;47.900;8.146;2022-07-06T07:58:04;27.20;99.90
36594;DHT22;22603;47.900;8.146;2022-07-06T08:00:51;26.50;99.90
36594;DHT22;22603;47.900;8.146;2022-07-06T08:03:39;26.80;99.90
36594;DHT22;22603;47.900;8.146;2022-07-06T08:06:27;27.50;99.90
36594;DHT22;22603;47.900;8.146;2022-07-06T08:09:15;27.90;99.90
36594;DHT22;22603;47.900;8.146;2022-07-06T08:12:02;27.80;99.90
36594;DHT22;22603;47.900;8.146;2022-07-06T08:14:49;27.80;99.90
36594;DHT22;22603;47.900;8.146;2022-07-06T08:17:36;27.90;99.90
36594;DHT22;22603;47.900;8.146;2022-07-06T08:20:26;28.30;99.90
36594;DHT22;22603;47.900;8.146;2022-07-06T08:23:13;27.90;99.90
36594;DHT22;22603;47.900;8.146;2022-07-06T08:26:00;27.80;99.90
36594;DHT22;22603;47.900;8.146;2022-07-06T08:28:47;28.10;99.90
36594;DHT22;22603;47.900;8.146;2022-07-06T08:31:35;28.10;99.90
36594;DHT22;22603;47.900;8.146;2022-07-06T08:34:42;27.90;99.90
36594;DHT22;22603;47.900;8.146;2022-07-06T08:37:31;28.20;99.90
36594;DHT22;22603;47.900;8.146;2022-07-06T08:40:18;28.30;99.90
36594;DHT22;22603;47.900;8.146;2022-07-06T08:43:05;28.40;99.90
36594;DHT22;22603;47.900;8.146;2022-07-06T08:45:53;28.50;99.90
36594;DHT22;22603;47.900;8.146;2022-07-06T08:48:41;28.50;99.90
36594;DHT22;22603;47.900;8.146;2022-07-06T08:51:28;28.00;99.90
36594;DHT22;22603;47.900;8.146;2022-07-06T08:54:17;27.40;99.90
36594;DHT22;22603;47.900;8.146;2022-07-06T08:57:06;27.20;99.90
36594;DHT22;22603;47.900;8.146;2022-07-06T08:59:53;27.70;99.90
36594;DHT22;22603;47.900;8.146;2022-07-06T09:02:41;28.10;99.90
36594;DHT22;22603;47.900;8.146;2022-07-06T09:05:28;27.70;99.90
36594;DHT22;22603;47.900;8.146;2022-07-06T09:08:15;28.20;99.90
36594;DHT22;22603;47.900;8.146;2022-07-06T09:11:05;28.20;99.90
36594;DHT22;22603;47.900;8.146;2022-07-06T09:13:53;28.70;99.90
36594;DHT22;22603;47.900;8.146;2022-07-06T09:16:40;28.80;99.90
36594;DHT22;22603;47.900;8.146;2022-07-06T09:19:27;29.00;99.90
36594;DHT22;22603;47.900;8.146;2022-07-06T09:22:25;29.00;99.90
36594;DHT22;22603;47.900;8.146;2022-07-06T09:25:14;28.80;99.90
36594;DHT22;22603;47.900;8.146;2022-07-06T09:28:03;29.20;99.90
36594;DHT22;22603;47.900;8.146;2022-07-06T09:30:54;29.00;99.90
36594;DHT22;22603;47.900;8.146;2022-07-06T09:33:57;28.20;99.90
36594;DHT22;22603;47.900;8.146;2022-07-06T09:36:47;29.00;99.90
36594;DHT22;22603;47.900;8.146;2022-07-06T09:39:34;29.40;99.90
36594;DHT22;22603;47.900;8.146;2022-07-06T09:42:24;28.90;99.90
36594;DHT22;22603;47.900;8.146;2022-07-06T09:45:13;29.00;99.90
36594;DHT22;22603;47.900;8.146;2022-07-06T09:48:12;29.40;99.90
36594;DHT22;22603;47.900;8.146;2022-07-06T09:51:01;29.50;99.90
36594;DHT22;22603;47.900;8.146;2022-07-06T09:53:51;29.10;99.90
36594;DHT22;22603;47.900;8.146;2022-07-06T09:56:40;29.60;99.90
36594;DHT22;22603;47.900;8.146;2022-07-06T09:59:29;29.70;99.90
36594;DHT22;22603;47.900;8.146;2022-07-06T10:02:20;29.90;99.90
36594;DHT22;22603;47.900;8.146;2022-07-06T10:05:08;30.00;99.90
36594;DHT22;22603;47.900;8.146;2022-07-06T10:07:57;30.20;99.90
36594;DHT22;22603;47.900;8.146;2022-07-06T10:10:44;30.30;99.90
36594;DHT22;22603;47.900;8.146;2022-07-06T10:13:35;29.70;99.90
36594;DHT22;22603;47.900;8.146;2022-07-06T10:16:23;29.60;99.90
36594;DHT22;22603;47.900;8.146;2022-07-06T10:19:14;29.40;99.90
36594;DHT22;22603;47.900;8.146;2022-07-06T10:22:03;29.30;99.90
36594;DHT22;22603;47.900;8.146;2022-07-06T10:24:51;30.00;99.90
36594;DHT22;22603;47.900;8.146;2022-07-06T10:27:39;29.50;99.90
36594;DHT22;22603;47.900;8.146;2022-07-06T10:30:27;28.80;99.90
36594;DHT22;22603;47.900;8.146;2022-07-06T10:33:16;29.00;99.90
36594;DHT22;22603;47.900;8.146;2022-07-06T10:36:11;29.20;99.90
36594;DHT22;22603;47.900;8.146;2022-07-06T10:38:58;29.10;99.90
36594;DHT22;22603;47.900;8.146;2022-07-06T10:42:05;29.20;99.90
36594;DHT22;22603;47.900;8.146;2022-07-06T10:44:50;29.90;99.90
36594;DHT22;22603;47.900;8.146;2022-07-06T10:47:38;30.50;99.90
36594;DHT22;22603;47.900;8.146;2022-07-06T10:50:34;31.00;99.90
36594;DHT22;22603;47.900;8.146;2022-07-06T10:53:24;30.90;99.90
36594;DHT22;22603;47.900;8.146;2022-07-06T10:56:12;30.90;99.90
36594;DHT22;22603;47.900;8.146;2022-07-06T10:59:02;30.80;99.90
36594;DHT22;22603;47.900;8.146;2022-07-06T11:02:12;29.50;99.90
36594;DHT22;22603;47.900;8.146;2022-07-06T11:05:00;27.80;99.90
36594;DHT22;22603;47.900;8.146;2022-07-06T11:07:50;28.00;99.90
36594;DHT22;22603;47.900;8.146;2022-07-06T11:10:49;28.10;99.90
36594;DHT22;22603;47.900;8.146;2022-07-06T11:13:42;28.10;99.90
36594;DHT22;22603;47.900;8.146;2022-07-06T11:16:31;28.10;99.90
36594;DHT22;22603;47.900;8.146;2022-07-06T11:19:24;27.60;99.90
36594;DHT22;22603;47.900;8.146;2022-07-06T11:22:15;27.10;99.90
36594;DHT22;22603;47.900;8.146;2022-07-06T11:25:04;27.50;99.90
36594;DHT22;22603;47.900;8.146;2022-07-06T11:27:53;27.60;99.90
36594;DHT22;22603;47.900;8.146;2022-07-06T11:30:40;27.70;99.90
36594;DHT22;22603;47.900;8.146;2022-07-06T11:33:28;27.90;99.90
36594;DHT22;22603;47.900;8.146;2022-07-06T11:36:17;28.20;99.90
36594;DHT22;22603;47.900;8.146;2022-07-06T11:39:04;28.40;99.90
36594;DHT22;22603;47.900;8.146;2022-07-06T11:41:52;28.10;99.90
36594;DHT22;22603;47.900;8.146;2022-07-06T11:44:42;27.90;99.90
36594;DHT22;22603;47.900;8.146;2022-07-06T11:47:31;28.20;99.90
36594;DHT22;22603;47.900;8.146;2022-07-06T11:50:19;28.10;99.90
36594;DHT22;22603;47.900;8.146;2022-07-06T11:53:07;27.70;99.90
36594;DHT22;22603;47.900;8.146;2022-07-06T11:55:54;27.90;99.90
36594;DHT22;22603;47.900;8.146;2022-07-06T11:58:43;28.00;99.90
36594;DHT22;22603;47.900;8.146;2022-07-06T12:01:48;27.50;99.90
36594;DHT22;22603;47.900;8.146;2022-07-06T12:04:44;27.70;99.90
36594;DHT22;22603;47.900;8.146;2022-07-06T12:07:32;27.50;99.90
36594;DHT22;22603;47.900;8.146;2022-07-06T12:10:31;27.60;99.90
36594;DHT22;22603;47.900;8.146;2022-07-06T12:13:18;27.80;99.90
36594;DHT22;22603;47.900;8.146;2022-07-06T12:16:12;27.40;99.90
36594;DHT22;22603;47.900;8.146;2022-07-06T12:19:04;27.40;99.90
36594;DHT22;22603;47.900;8.146;2022-07-06T12:21:52;27.70;99.90
36594;DHT22;22603;47.900;8.146;2022-07-06T12:24:43;27.80;99.90
36594;DHT22;22603;47.900;8.146;2022-07-06T12:27:34;27.60;99.90
36594;DHT22;22603;47.900;8.146;2022-07-06T12:30:21;27.90;99.90
36594;DHT22;22603;47.900;8.146;2022-07-06T12:33:12;27.80;99.90
36594;DHT22;22603;47.900;8.146;2022-07-06T12:36:11;27.60;99.90
36594;DHT22;22603;47.900;8.146;2022-07-06T12:38:58;27.40;99.90
36594;DHT22;22603;47.900;8.146;2022-07-06T12:41:47;27.30;99.90
36594;DHT22;22603;47.900;8.146;2022-07-06T12:44:42;27.70;99.90
36594;DHT22;22603;47.900;8.146;2022-07-06T12:47:30;27.20;99.90
36594;DHT22;22603;47.900;8.146;2022-07-06T12:50:16;26.90;99.90
36594;DHT22;22603;47.900;8.146;2022-07-06T12:53:06;27.20;99.90
36594;DHT22;22603;47.900;8.146;2022-07-06T12:56:11;26.80;99.90
36594;DHT22;22603;47.900;8.146;2022-07-06T12:58:59;26.90;99.90
36594;DHT22;22603;47.900;8.146;2022-07-06T13:01:47;27.10;99.90
36594;DHT22;22603;47.900;8.146;2022-07-06T13:04:36;26.80;99.90
36594;DHT22;22603;47.900;8.146;2022-07-06T13:07:24;27.00;99.90
36594;DHT22;22603;47.900;8.146;2022-07-06T13:10:14;26.90;99.90
36594;DHT22;22603;47.900;8.146;2022-07-06T13:13:01;27.10;99.90
36594;DHT22;22603;47.900;8.146;2022-07-06T13:15:49;26.80;99.90
36594;DHT22;22603;47.900;8.146;2022-07-06T13:18:38;26.90;99.90
36594;DHT22;22603;47.900;8.146;2022-07-06T13:21:25;26.80;99.90
36594;DHT22;22603;47.900;8.146;2022-07-06T13:24:12;26.60;99.90
36594;DHT22;22603;47.900;8.146;2022-07-06T13:27:00;26.70;99.90
36594;DHT22;22603;47.900;8.146;2022-07-06T13:29:47;26.10;99.90
36594;DHT22;22603;47.900;8.146;2022-07-06T13:32:34;26.30;99.90
36594;DHT22;22603;47.900;8.146;2022-07-06T13:35:24;26.10;99.90
36594;DHT22;22603;47.900;8.146;2022-07-06T13:38:14;26.40;99.90
36594;DHT22;22603;47.900;8.146;2022-07-06T13:41:02;26.60;99.90
36594;DHT22;22603;47.900;8.146;2022-07-06T13:43:50;26.50;99.90
36594;DHT22;22603;47.900;8.146;2022-07-06T13:46:38;26.50;99.90
36594;DHT22;22603;47.900;8.146;2022-07-06T13:49:26;26.00;99.90
36594;DHT22;22603;47.900;8.146;2022-07-06T13:52:17;26.40;99.90
36594;DHT22;22603;47.900;8.146;2022-07-06T13:55:05;26.50;99.90
36594;DHT22;22603;47.900;8.146;2022-07-06T13:57:52;26.40;99.90
36594;DHT22;22603;47.900;8.146;2022-07-06T14:00:42;26.60;99.90
36594;DHT22;22603;47.900;8.146;2022-07-06T14:03:29;26.40;99.90
36594;DHT22;22603;47.900;8.146;2022-07-06T14:06:18;26.30;99.90
36594;DHT22;22603;47.900;8.146;2022-07-06T14:09:05;26.30;99.90
36594;DHT22;22603;47.900;8.146;2022-07-06T14:11:52;26.30;99.90
36594;DHT22;22603;47.900;8.146;2022-07-06T14:14:39;26.40;99.90
36594;DHT22;22603;47.900;8.146;2022-07-06T14:17:28;26.00;99.90
36594;DHT22;22603;47.900;8.146;2022-07-06T14:20:15;26.00;99.90
36594;DHT22;22603;47.900;8.146;2022-07-06T14:23:04;26.00;99.90
36594;DHT22;22603;47.900;8.146;2022-07-06T14:25:51;26.10;99.90
36594;DHT22;22603;47.900;8.146;2022-07-06T14:28:40;25.80;99.90
36594;DHT22;22603;47.900;8.146;2022-07-06T14:31:27;26.00;99.90
36594;DHT22;22603;47.900;8.146;2022-07-06T14:34:16;25.90;99.90
36594;DHT22;22603;47.900;8.146;2022-07-06T14:37:03;25.80;99.90
36594;DHT22;22603;47.900;8.146;2022-07-06T14:39:51;25.70;99.90
36594;DHT22;22603;47.900;8.146;2022-07-06T14:42:38;25.40;99.90
36594;DHT22;22603;47.900;8.146;2022-07-06T14:45:25;25.20;99.90
36594;DHT22;22603;47.900;8.146;2022-07-06T14:48:12;25.70;99.90
36594;DHT22;22603;47.900;8.146;2022-07-06T14:51:01;25.70;99.90
36594;DHT22;22603;47.900;8.146;2022-07-06T14:53:48;25.60;99.90
36594;DHT22;22603;47.900;8.146;2022-07-06T14:56:35;25.40;99.90
36594;DHT22;22603;47.900;8.146;2022-07-06T14:59:22;25.40;99.90
36594;DHT22;22603;47.900;8.146;2022-07-06T15:02:11;25.50;99.90
36594;DHT22;22603;47.900;8.146;2022-07-06T15:04:58;25.30;99.90
36594;DHT22;22603;47.900;8.146;2022-07-06T15:07:46;25.20;99.90
36594;DHT22;22603;47.900;8.146;2022-07-06T15:10:39;25.20;99.90
36594;DHT22;22603;47.900;8.146;2022-07-06T15:13:27;24.60;99.90
36594;DHT22;22603;47.900;8.146;2022-07-06T15:16:14;24.60;99.90
36594;DHT22;22603;47.900;8.146;2022-07-06T15:19:02;24.70;99.90
36594;DHT22;22603;47.900;8.146;2022-07-06T15:21:52;24.70;99.90
36594;DHT22;22603;47.900;8.146;2022-07-06T15:24:42;24.70;99.90
36594;DHT22;22603;47.900;8.146;2022-07-06T15:27:29;24.70;99.90
36594;DHT22;22603;47.900;8.146;2022-07-06T15:30:16;24.70;99.90
36594;DHT22;22603;47.900;8.146;2022-07-06T15:33:15;24.80;99.90
36594;DHT22;22603;47.900;8.146;2022-07-06T15:36:02;24.30;99.90
36594;DHT22;22603;47.900;8.146;2022-07-06T15:38:49;24.60;99.90
36594;DHT22;22603;47.900;8.146;2022-07-06T15:41:37;24.40;99.90
36594;DHT22;22603;47.900;8.146;2022-07-06T15:44:24;24.30;99.90
36594;DHT22;22603;47.900;8.146;2022-07-06T15:47:11;24.40;99.90
36594;DHT22;22603;47.900;8.146;2022-07-06T15:49:58;24.50;99.90
36594;DHT22;22603;47.900;8.146;2022-07-06T15:52:45;24.40;99.90
36594;DHT22;22603;47.900;8.146;2022-07-06T15:55:32;24.50;99.90
36594;DHT22;22603;47.900;8.146;2022-07-06T15:58:21;24.20;99.90
36594;DHT22;22603;47.900;8.146;2022-07-06T16:01:08;24.00;99.90
36594;DHT22;22603;47.900;8.146;2022-07-06T16:03:55;23.40;99.90
36594;DHT22;22603;47.900;8.146;2022-07-06T16:06:43;23.50;99.90
36594;DHT22;22603;47.900;8.146;2022-07-06T16:09:50;23.50;99.90
36594;DHT22;22603;47.900;8.146;2022-07-06T16:12:37;23.40;99.90
36594;DHT22;22603;47.900;8.146;2022-07-06T16:15:26;23.50;99.90
36594;DHT22;22603;47.900;8.146;2022-07-06T16:18:13;23.20;99.90
36594;DHT22;22603;47.900;8.146;2022-07-06T16:21:01;22.70;99.90
36594;DHT22;22603;47.900;8.146;2022-07-06T16:23:48;22.40;99.90
36594;DHT22;22603;47.900;8.146;2022-07-06T16:26:36;22.10;99.90
36594;DHT22;22603;47.900;8.146;2022-07-06T16:29:24;21.80;99.90
36594;DHT22;22603;47.900;8.146;2022-07-06T16:32:13;21.60;99.90
36594;DHT22;22603;47.900;8.146;2022-07-06T16:35:00;21.60;99.90
36594;DHT22;22603;47.900;8.146;2022-07-06T16:37:47;21.50;99.90
36594;DHT22;22603;47.900;8.146;2022-07-06T16:40:35;21.40;99.90
36594;DHT22;22603;47.900;8.146;2022-07-06T16:43:22;21.40;99.90
36594;DHT22;22603;47.900;8.146;2022-07-06T16:46:10;21.10;99.90
36594;DHT22;22603;47.900;8.146;2022-07-06T16:48:59;21.10;99.90
36594;DHT22;22603;47.900;8.146;2022-07-06T16:51:46;21.10;99.90
36594;DHT22;22603;47.900;8.146;2022-07-06T16:54:33;20.90;99.90
36594;DHT22;22603;47.900;8.146;2022-07-06T16:57:21;20.80;99.90
36594;DHT22;22603;47.900;8.146;2022-07-06T17:00:09;20.70;99.90
36594;DHT22;22603;47.900;8.146;2022-07-06T17:02:57;20.60;99.90
36594;DHT22;22603;47.900;8.146;2022-07-06T17:05:46;20.60;99.90
36594;DHT22;22603;47.900;8.146;2022-07-06T17:08:33;20.40;99.90
36594;DHT22;22603;47.900;8.146;2022-07-06T17:11:20;20.50;99.90
36594;DHT22;22603;47.900;8.146;2022-07-06T17:14:08;20.30;99.90
36594;DHT22;22603;47.900;8.146;2022-07-06T17:17:12;20.30;99.90
36594;DHT22;22603;47.900;8.146;2022-07-06T17:20:00;20.50;99.90
36594;DHT22;22603;47.900;8.146;2022-07-06T17:22:48;20.60;99.90
36594;DHT22;22603;47.900;8.146;2022-07-06T17:25:36;20.60;99.90
36594;DHT22;22603;47.900;8.146;2022-07-06T17:28:24;20.60;99.90
36594;DHT22;22603;47.900;8.146;2022-07-06T17:31:11;20.70;99.90
36594;DHT22;22603;47.900;8.146;2022-07-06T17:33:58;20.50;99.90
36594;DHT22;22603;47.900;8.146;2022-07-06T17:36:48;20.70;99.90
36594;DHT22;22603;47.900;8.146;2022-07-06T17:39:37;20.60;99.90
36594;DHT22;22603;47.900;8.146;2022-07-06T17:42:24;20.60;99.90
36594;DHT22;22603;47.900;8.146;2022-07-06T17:45:11;20.50;99.90
36594;DHT22;22603;47.900;8.146;2022-07-06T17:47:59;20.50;99.90